Lisbon, Maine
Current Conditions -  °F | °C
As of 3:15 AM on Thursday 27 Nov 2014 (Local Time) from KLEW Reporting Station
Overcast Overcast  
Wind Chill: 15°   Ceiling: 1400
Heat Index: 28°   Visibility: 3mi
Dew Point: 25°   Wind: 21mph
Humidity: 86%   Direction: 360°N
Pressure: 29.73"   Gusts: 30mph
Location:  44.03°N, 70.1°W
Report Text: KLEW 270815Z AUTO 36018G26KT 3SM BKN014 OVC019 M02/M04 A2973 RMK AO1
Loading
Personal Weather Stations






























Interactive Weather Map New forecast layout! Learn more

10-Day Weather Forecast

Advertisements
Track Severe Weather on mobile